Long Beach /Daugherty Field/ Airport
KLGB : rendu visible

Aérodrome :











RETROUVEZ-NOUS SUR...

 
LOGIN :

S'inscrire | Disclaimer

   EN    FR    IT 

 









Légende :    VFR   VFR Marginal   IFR   IFR Intensif   IFR Très Intensif
Visi : 
Plafond : 
>= 8 km
>= 3000ft
5 à 8 km
1000 à 3000 ft
1500m à 5 km
500 à 1000 ft
800 à 1500m
200 à 500 ft
< 800m
< 200 ft
Symboles :   Orages  Brouillard  Fortes neiges  Fortes précipitations  Vent > 20 kt






- Altitude de l'aérodrome : 60 ft
- Code IATA : LGB


KLGB - Long Beach /Daugherty Field/

DERNIER METAR :
  • 032253Z 31009KT 10SM CLR 28/13 A2996 RMK AO2 SLP146 T02780133

METARs EXPIRÉS :
  • 032153Z 28008KT 10SM CLR 27/13 A2998 RMK AO2 SLP151 T02720133
  • 032053Z 31008KT 10SM CLR 27/14 A2999 RMK AO2 SLP154 T02720139 56006

TAF KLGB
Valide du 03 à 18h jusqu'au 04 à 18h UTC


031739Z 0318/0418 VRB05KT P6SM SKC
FM032000 20007KT P6SM SKC
FM032300 29010KT P6SM SKC
FM040500 VRB03KT P6SM SKC
FM041000 VRB03KT P6SM OVC005
FM041700 25006KT P6SM OVC012
FIR KZLA / Amérique du Nord



MET'MAP, la Météo Aéronautique d'un coup d'oeil ! - Copyright ORBIFLY Décembre 2007 - Disclaimer

ORBIFLY MET'MAP TEAM :

Programmation & Développement : Alexandra Zaïnal
Sur une idée originale de : Baudouin d'Aumeries
Assistance à la programmation : Marc-Olivier Méhu
Soutien technique & logistique : Manuel Goepfert

Contact : metmap@orbifly.com




SOURCES & CREDITS :

   NOAA       Earth
Advisory